KAMW/AMW METAR and TAF weather

Enter ICAO airport designator
Station Type Date Time Source
KAMW METAR 2021/03/09 09:53 UTC NOAA

KAMW 090953Z AUTO 16008KT 10SM CLR 08/02 A3008 RMK AO2 SLP184 T00780017


Station Type Date Time Source
KAMW Decoded METAR 2021/03/09 09:53 UTC NOAA

AMES MUNICIPAL AIRPORT, IA, United States (KAMW) 41-59N 93-37W 279M
Mar 09, 2021 - 04:53 AM EST / 2021.03.09 0953 UTC
Wind: from the SSE (160 degrees) at 9 MPH (8 KT):0
Visibility: 10 mile(s):0
Sky conditions: clear
Temperature: 46.0 F (7.8 C)
Dew Point: 35.1 F (1.7 C)
Relative Humidity: 65%
Pressure (altimeter): 30.08 in. Hg (1018 hPa)
ob: KAMW 090953Z AUTO 16008KT 10SM CLR 08/02 A3008 RMK AO2 SLP184 T00780017
cycle: 10

Station Type Date Time Source
KAMW TAF UTC NOAA

Error!

Example: see airport list